Time;durP1;ratioP1;P1;durP2;ratioP2;P2;SDS_P1;SDS_P2;PMS_P1;PMS_P2;Temp;Humidity;BMP_temperature;BMP_pressure;BME280_temperature;BME280_humidity;BME280_pressure;Samples;Min_cycle;Max_cycle;Signal;HPM_P1;HPM_P2
2022/08/23 00:02:10;;;;;;;21.00;14.77;;;;;;;19.63;95.69;98748.03;5055300;28;20402;-92
2022/08/23 00:04:42;;;;;;;21.52;14.30;;;;;;;19.59;95.17;98752.94;5055862;28;20070;-91
2022/08/23 00:07:10;;;;;;;21.95;15.57;;;;;;;19.48;95.53;98752.97;5055787;28;20032;-91
2022/08/23 00:09:36;;;;;;;21.30;15.30;;;;;;;19.44;96.74;98755.03;5073020;28;20097;-91
2022/08/23 00:12:20;;;;;;;25.33;15.20;;;;;;;19.46;96.57;98758.25;5053164;28;20503;-92
2022/08/23 00:14:52;;;;;;;18.20;13.65;;;;;;;19.53;95.90;98766.75;5073279;28;20519;-93
2022/08/23 00:17:18;;;;;;;20.45;14.65;;;;;;;19.32;93.23;98742.16;5055869;28;20475;-91
2022/08/23 00:19:44;;;;;;;23.90;14.50;;;;;;;19.07;92.74;98703.41;5055358;28;20089;-92
2022/08/23 00:22:11;;;;;;;23.73;14.25;;;;;;;19.45;93.41;98759.47;5055332;28;20025;-91
2022/08/23 00:24:38;;;;;;;20.83;14.63;;;;;;;19.63;93.19;98762.22;5073416;28;20025;-91
2022/08/23 00:27:10;;;;;;;21.17;14.52;;;;;;;19.64;93.17;98761.00;5051904;28;20036;-92
2022/08/23 00:29:49;;;;;;;21.58;14.52;;;;;;;19.76;92.83;98776.75;5034367;28;20032;-92
2022/08/23 00:32:28;;;;;;;27.02;14.90;;;;;;;19.60;94.16;98772.34;5035058;28;20119;-92
2022/08/23 00:34:54;;;;;;;22.38;15.57;;;;;;;19.44;96.06;98769.22;5035287;28;20028;-92
2022/08/23 00:37:20;;;;;;;20.90;15.25;;;;;;;19.40;96.87;98771.25;5044363;28;20140;-92
2022/08/23 00:39:46;;;;;;;21.42;15.95;;;;;;;19.40;97.51;98772.06;5072755;28;20044;-93
2022/08/23 00:48:05;;;;;;;28.63;18.33;;;;;;;19.36;98.79;98762.78;5073093;28;20407;-93
2022/08/23 00:50:48;;;;;;;23.20;18.13;;;;;;;19.34;99.31;98768.84;5054488;28;20017;-92
2022/08/23 00:53:14;;;;;;;29.83;18.42;;;;;;;19.41;99.88;98787.84;5034733;28;20029;-93
2022/08/23 00:55:42;;;;;;;33.78;18.42;;;;;;;19.32;99.83;98767.66;5036282;28;20056;-92
2022/08/23 00:58:08;;;;;;;26.60;18.30;;;;;;;19.37;99.87;98772.88;5034374;28;20033;-92
2022/08/23 01:00:34;;;;;;;27.73;17.80;;;;;;;19.58;99.47;98810.88;5034754;28;20020;-92
2022/08/23 01:03:05;;;;;;;21.85;17.50;;;;;;;19.69;98.61;98814.47;5046116;28;20466;-92
2022/08/23 01:05:41;;;;;;;24.17;17.58;;;;;;;19.70;99.02;98818.91;5054253;28;20024;-92
2022/08/23 01:08:06;;;;;;;26.98;17.90;;;;;;;19.66;99.31;98806.75;5067193;28;20038;-92
2022/08/23 01:10:48;;;;;;;28.50;18.17;;;;;;;19.82;98.47;98811.16;5054531;28;20474;-92
2022/08/23 01:13:23;;;;;;;28.10;18.67;;;;;;;19.75;97.40;98807.13;5071876;28;20060;-92
2022/08/23 01:16:12;;;;;;;31.00;20.23;;;;;;;19.63;98.36;98793.41;5054389;28;20020;-92
2022/08/23 01:18:40;;;;;;;32.83;19.15;;;;;;;19.48;98.95;98787.00;5054411;28;20025;-91
2022/08/23 01:21:31;;;;;;;29.13;18.45;;;;;;;19.69;99.20;98803.13;5054514;28;20127;-91
2022/08/23 01:24:01;;;;;;;23.42;18.75;;;;;;;19.70;98.99;98810.41;5053235;28;20033;-92
2022/08/23 01:26:30;;;;;;;33.45;19.35;;;;;;;19.53;99.48;98794.28;5054107;28;20028;-91
2022/08/23 01:28:56;;;;;;;28.27;20.00;;;;;;;19.52;99.75;98792.66;5054344;28;20650;-92
2022/08/23 01:31:23;;;;;;;25.90;19.40;;;;;;;19.44;100.00;98784.22;5054281;28;20020;-93
2022/08/23 01:34:08;;;;;;;24.23;19.27;;;;;;;19.61;100.00;98801.53;5071927;28;20021;-91
2022/08/23 01:36:36;;;;;;;27.52;19.50;;;;;;;19.60;100.00;98806.38;5054091;28;20017;-92
2022/08/23 01:39:03;;;;;;;24.30;18.08;;;;;;;19.44;100.00;98781.38;5050887;28;20033;-91
2022/08/23 01:41:29;;;;;;;22.95;17.05;;;;;;;19.28;100.00;98758.34;5041311;28;20024;-91
2022/08/23 01:43:54;;;;;;;29.25;18.80;;;;;;;19.81;98.79;98815.22;5058080;28;20020;-91
2022/08/23 01:46:22;;;;;;;27.55;18.73;;;;;;;19.83;97.51;98815.59;5058302;28;20016;-92
2022/08/23 01:48:50;;;;;;;25.13;18.90;;;;;;;19.94;98.24;98830.56;5058122;28;20050;-92
2022/08/23 01:51:18;;;;;;;23.80;17.58;;;;;;;19.96;98.02;98827.31;5058145;28;20518;-92
2022/08/23 01:53:45;;;;;;;31.60;18.80;;;;;;;20.00;98.06;98830.94;5057721;28;20024;-91
2022/08/23 01:56:12;;;;;;;25.27;17.88;;;;;;;19.95;98.05;98828.53;5057941;28;20510;-92
2022/08/23 01:58:37;;;;;;;23.25;17.42;;;;;;;19.75;97.83;98809.97;5058000;28;20097;-91
2022/08/23 02:01:03;;;;;;;22.40;16.70;;;;;;;19.67;98.49;98794.22;5055579;28;20020;-91
2022/08/23 02:03:29;;;;;;;20.13;16.33;;;;;;;19.59;99.48;98793.44;5054900;28;20062;-92
2022/08/23 02:05:56;;;;;;;24.73;16.63;;;;;;;19.59;100.00;98798.31;5054914;28;20066;-91
2022/08/23 02:11:10;;;;;;;31.75;20.83;;;;;;;19.44;100.00;98795.56;5075716;28;20407;-92
2022/08/23 02:13:35;;;;;;;34.50;21.50;;;;;;;19.27;100.00;98787.91;5057683;28;20024;-93
2022/08/23 02:16:01;;;;;;;39.17;23.23;;;;;;;19.28;100.00;98821.53;5055416;28;20529;-92
2022/08/23 02:18:28;;;;;;;37.20;22.08;;;;;;;19.24;100.00;98814.25;5045281;28;20020;-92
2022/08/23 02:20:54;;;;;;;44.25;22.83;;;;;;;19.22;100.00;98821.16;5054763;28;20017;-94
2022/08/23 02:23:20;;;;;;;26.65;18.33;;;;;;;19.09;100.00;98811.47;5055595;28;20128;-93
2022/08/23 02:25:46;;;;;;;25.52;17.83;;;;;;;18.93;100.00;98812.69;5047967;28;20297;-94
2022/08/23 02:28:11;;;;;;;23.90;16.23;;;;;;;18.88;100.00;98809.44;5056688;28;20396;-92
2022/08/23 02:30:38;;;;;;;22.90;14.73;;;;;;;18.91;100.00;98814.31;5064114;28;20094;-94
2022/08/23 02:33:04;;;;;;;24.10;15.52;;;;;;;18.98;100.00;98816.31;5057592;28;20021;-93
2022/08/23 02:35:32;;;;;;;23.95;14.73;;;;;;;18.74;100.00;98793.31;5055579;28;20050;-93
2022/08/23 02:38:01;;;;;;;28.77;16.52;;;;;;;19.08;100.00;98832.53;5057344;28;20077;-93
2022/08/23 02:40:27;;;;;;;34.05;16.48;;;;;;;19.01;100.00;98826.88;5050586;28;20492;-93
2022/08/23 02:42:52;;;;;;;23.98;17.15;;;;;;;19.08;100.00;98824.03;5048217;28;20024;-93
2022/08/23 02:45:18;;;;;;;21.42;15.45;;;;;;;19.29;100.00;98833.66;5057275;28;20024;-92
2022/08/23 02:47:45;;;;;;;19.80;14.50;;;;;;;19.17;100.00;98790.38;5056997;28;20111;-92
2022/08/23 02:50:12;;;;;;;23.70;16.85;;;;;;;19.58;100.00;98839.25;5057602;28;20036;-93
2022/08/23 02:52:37;;;;;;;28.42;18.02;;;;;;;19.54;100.00;98827.09;5055035;28;20058;-93
2022/08/23 02:55:03;;;;;;;28.10;18.55;;;;;;;19.69;100.00;98825.81;5053257;28;20084;-93
2022/08/23 02:57:29;;;;;;;28.13;17.02;;;;;;;19.74;100.00;98816.06;5053842;28;20028;-92
2022/08/23 02:59:54;;;;;;;27.20;15.32;;;;;;;19.82;100.00;98823.31;5049197;28;20048;-92
2022/08/23 03:02:20;;;;;;;24.42;16.63;;;;;;;19.85;100.00;98824.50;5041520;28;20056;-93
2022/08/23 03:04:45;;;;;;;22.38;15.68;;;;;;;19.87;100.00;98817.22;5033621;28;20037;-91
2022/08/23 03:07:11;;;;;;;21.80;15.25;;;;;;;19.89;100.00;98822.44;5033681;28;20029;-91
2022/08/23 03:09:37;;;;;;;24.50;16.83;;;;;;;19.60;99.81;98785.75;5033605;28;20071;-92
2022/08/23 03:12:03;;;;;;;22.80;16.23;;;;;;;19.80;99.88;98830.63;5033605;28;20042;-92
2022/08/23 03:14:28;;;;;;;23.13;16.05;;;;;;;19.74;99.88;98816.88;5033553;28;20029;-91
2022/08/23 03:16:54;;;;;;;24.23;16.90;;;;;;;19.91;99.29;98814.34;5033357;28;20082;-91
2022/08/23 03:19:20;;;;;;;22.67;16.10;;;;;;;19.87;97.85;98797.34;5033443;28;20503;-92
2022/08/23 03:21:46;;;;;;;20.13;15.63;;;;;;;20.10;97.16;98835.75;5033662;28;20029;-90
2022/08/23 03:24:11;;;;;;;28.45;16.38;;;;;;;19.94;97.10;98818.41;5033414;28;20019;-91
2022/08/23 03:26:39;;;;;;;23.02;16.05;;;;;;;19.87;96.32;98793.69;5033700;28;20029;-91
2022/08/23 03:29:05;;;;;;;23.98;16.95;;;;;;;20.27;95.22;98839.69;5034003;28;20091;-90
2022/08/23 03:31:31;;;;;;;22.30;17.13;;;;;;;19.94;95.67;98835.44;5034381;28;20028;-91
2022/08/23 03:33:57;;;;;;;21.95;17.25;;;;;;;19.65;99.19;98839.19;5034483;28;20029;-91
2022/08/23 03:36:22;;;;;;;21.35;16.92;;;;;;;19.62;98.75;98803.16;5033993;28;20026;-91
2022/08/23 03:38:48;;;;;;;20.27;15.23;;;;;;;20.11;96.89;98831.69;5033925;28;20021;-91
2022/08/23 03:41:14;;;;;;;20.08;14.85;;;;;;;19.87;95.77;98805.03;5042123;28;20021;-91
2022/08/23 03:43:39;;;;;;;22.15;16.13;;;;;;;20.28;95.27;98851.84;5052761;28;20028;-91
2022/08/23 03:46:05;;;;;;;35.55;16.15;;;;;;;20.00;95.89;98831.72;5052592;28;20028;-91
2022/08/23 03:48:31;;;;;;;46.83;16.30;;;;;;;20.23;95.24;98841.72;5052677;28;20040;-91
2022/08/23 03:50:57;;;;;;;25.08;16.05;;;;;;;20.05;94.78;98819.97;5052327;28;20032;-90
2022/08/23 03:53:23;;;;;;;28.55;15.35;;;;;;;20.29;94.56;98853.44;5052378;28;20025;-89
2022/08/23 03:55:51;;;;;;;23.17;15.25;;;;;;;20.14;94.61;98836.53;5066823;28;20049;-90
2022/08/23 03:58:16;;;;;;;28.25;16.52;;;;;;;20.38;94.44;98862.31;5055655;28;20021;-90
2022/08/23 04:00:42;;;;;;;22.85;16.77;;;;;;;20.12;95.48;98858.03;5057459;28;20038;-90
2022/08/23 04:03:08;;;;;;;21.33;15.57;;;;;;;19.96;94.70;98816.78;5055438;28;20059;-89
2022/08/23 04:05:33;;;;;;;17.60;14.40;;;;;;;20.27;93.13;98859.56;5055353;28;20106;-89
2022/08/23 04:08:05;;;;;;;18.58;14.75;;;;;;;20.16;93.57;98858.81;5054703;28;20017;-89
2022/08/23 04:10:30;;;;;;;17.52;12.85;;;;;;;20.02;94.66;98849.16;5055077;28;20032;-89
2022/08/23 04:12:55;;;;;;;16.17;12.65;;;;;;;19.87;94.64;98847.59;5055506;28;20024;-90
2022/08/23 04:15:23;;;;;;;17.27;12.90;;;;;;;20.11;93.57;98857.22;5055445;28;20090;-90
2022/08/23 04:17:49;;;;;;;22.65;14.13;;;;;;;20.27;92.87;98865.25;5055337;28;20119;-89
2022/08/23 04:20:14;;;;;;;19.83;12.93;;;;;;;19.83;93.63;98846.81;5055337;28;20060;-89
2022/08/23 04:22:40;;;;;;;20.88;12.77;;;;;;;19.61;95.52;98844.91;5051453;28;20036;-90
2022/08/23 04:25:06;;;;;;;18.08;11.70;;;;;;;19.73;95.79;98835.09;5035231;28;20033;-90
2022/08/23 04:27:31;;;;;;;21.60;13.32;;;;;;;19.48;96.47;98819.03;5035525;28;20021;-90
2022/08/23 04:29:57;;;;;;;19.02;12.90;;;;;;;19.32;97.98;98838.53;5035394;28;20029;-90
2022/08/23 04:32:23;;;;;;;16.70;12.68;;;;;;;19.29;98.84;98848.66;5042484;28;20031;-91
2022/08/23 04:34:48;;;;;;;19.70;12.52;;;;;;;19.38;99.09;98839.72;5049925;28;20025;-91
2022/08/23 04:37:14;;;;;;;21.58;13.25;;;;;;;19.36;98.61;98834.44;5053246;28;20536;-91
2022/08/23 04:42:18;;;;;;;14.30;10.80;;;;;;;19.78;96.33;98848.06;5101085;23;20397;-93
2022/08/23 04:44:43;;;;;;;20.52;11.40;;;;;;;19.88;95.54;98843.53;4995220;28;20030;-93
2022/08/23 04:47:09;;;;;;;16.02;10.95;;;;;;;19.92;94.69;98838.66;4994931;28;20389;-90
2022/08/23 04:49:34;;;;;;;13.23;10.43;;;;;;;19.75;94.10;98820.53;4995703;28;20492;-89
2022/08/23 04:52:00;;;;;;;14.23;10.45;;;;;;;19.75;94.38;98838.34;4995658;28;20064;-89
2022/08/23 04:54:27;;;;;;;16.58;10.73;;;;;;;19.87;94.19;98839.91;5013095;28;20480;-89
2022/08/23 04:56:53;;;;;;;12.88;9.45;;;;;;;19.91;93.33;98837.06;4995588;28;20049;-89
2022/08/23 04:59:18;;;;;;;13.98;9.00;;;;;;;20.08;92.68;98848.72;4995515;28;20053;-89
2022/08/23 05:01:44;;;;;;;13.48;8.32;;;;;;;20.09;92.45;98845.50;4994278;28;20022;-89
2022/08/23 05:04:10;;;;;;;10.95;8.13;;;;;;;20.03;91.32;98850.78;4995065;28;20475;-89
2022/08/23 05:06:36;;;;;;;15.15;8.55;;;;;;;20.09;90.63;98851.16;4995042;28;20084;-90
2022/08/23 05:09:02;;;;;;;10.88;7.82;;;;;;;19.99;91.51;98826.50;4995117;28;20500;-89
2022/08/23 05:11:28;;;;;;;16.08;8.98;;;;;;;19.62;91.85;98820.16;4994958;28;20087;-90
2022/08/23 05:13:54;;;;;;;14.70;8.98;;;;;;;19.55;93.88;98840.03;4994882;28;20026;-89
2022/08/23 05:16:20;;;;;;;11.23;8.48;;;;;;;19.42;96.48;98846.16;4993265;28;20087;-90
2022/08/23 05:18:45;;;;;;;15.10;9.27;;;;;;;19.28;96.68;98849.06;4995003;28;20463;-90
2022/08/23 05:21:20;;;;;;;16.80;10.35;;;;;;;18.92;98.52;98810.28;4995125;28;20557;-90
2022/08/23 05:23:46;;;;;;;14.25;9.48;;;;;;;19.15;100.00;98831.69;4995059;28;20114;-90
2022/08/23 05:26:12;;;;;;;12.68;10.07;;;;;;;18.97;100.00;98804.16;4994787;28;20026;-90
2022/08/23 05:28:41;;;;;;;13.98;11.32;;;;;;;19.33;100.00;98843.78;4994889;28;20029;-89
2022/08/23 05:31:07;;;;;;;19.33;12.68;;;;;;;19.30;99.75;98849.44;4994810;28;20029;-90
2022/08/23 05:33:33;;;;;;;17.08;12.15;;;;;;;19.51;100.00;98854.25;4994618;28;20439;-89
2022/08/23 05:36:00;;;;;;;21.17;11.50;;;;;;;19.52;99.81;98838.03;4994622;28;20026;-89
2022/08/23 05:38:26;;;;;;;17.40;10.35;;;;;;;19.49;100.00;98829.13;4994561;28;20033;-89
2022/08/23 05:40:54;;;;;;;19.83;11.57;;;;;;;19.76;100.00;98856.97;4994384;28;20022;-89
2022/08/23 05:43:20;;;;;;;14.43;10.80;;;;;;;19.92;99.65;98850.84;4994513;28;20029;-89
2022/08/23 05:45:46;;;;;;;15.90;10.65;;;;;;;19.98;98.21;98854.06;4994540;28;20022;-89
2022/08/23 05:48:14;;;;;;;18.17;13.07;;;;;;;20.09;97.27;98853.19;4994272;28;20037;-89
2022/08/23 05:50:40;;;;;;;18.73;13.43;;;;;;;20.26;96.50;98857.13;4994497;28;20037;-89
2022/08/23 05:53:08;;;;;;;20.80;15.73;;;;;;;20.02;95.63;98851.19;4994476;28;20022;-88
2022/08/23 05:55:34;;;;;;;21.25;15.25;;;;;;;20.12;95.29;98850.31;5011967;28;20025;-89
2022/08/23 05:58:00;;;;;;;22.25;15.63;;;;;;;20.18;97.27;98845.81;4994236;28;20508;-89
2022/08/23 06:00:26;;;;;;;22.77;13.85;;;;;;;20.41;96.48;98847.28;4994267;28;20018;-90
2022/08/23 06:02:53;;;;;;;20.38;14.20;;;;;;;20.54;97.18;98856.09;4994398;28;20018;-89
2022/08/23 06:05:19;;;;;;;24.85;15.68;;;;;;;20.60;95.05;98865.78;4994530;28;20168;-89
2022/08/23 06:07:48;;;;;;;19.08;14.50;;;;;;;20.68;95.37;98858.00;4994291;28;20022;-89
2022/08/23 06:10:13;;;;;;;21.58;15.25;;;;;;;20.57;95.13;98818.34;4994516;28;20116;-89
2022/08/23 06:12:41;;;;;;;19.55;13.88;;;;;;;21.05;93.02;98878.41;4994336;28;20488;-89
2022/08/23 06:15:07;;;;;;;27.92;13.77;;;;;;;20.80;90.29;98822.59;4994434;28;20049;-89
2022/08/23 06:17:33;;;;;;;21.27;12.35;;;;;;;20.85;89.76;98873.31;4994403;28;20107;-90
2022/08/23 06:20:01;;;;;;;16.10;11.30;;;;;;;20.61;89.46;98816.25;4994362;28;20036;-89
2022/08/23 06:22:31;;;;;;;23.90;13.27;;;;;;;20.92;89.75;98854.59;4994214;28;20032;-89
2022/08/23 06:24:57;;;;;;;20.13;12.27;;;;;;;20.93;88.57;98871.19;4994340;28;20096;-89
2022/08/23 06:27:22;;;;;;;17.30;11.50;;;;;;;20.71;88.79;98840.13;4996664;28;20523;-90
2022/08/23 06:29:48;;;;;;;16.08;11.25;;;;;;;21.10;89.16;98883.63;4997958;28;20080;-89
2022/08/23 06:32:14;;;;;;;13.30;11.45;;;;;;;20.97;89.32;98834.22;4997765;28;20041;-90
2022/08/23 06:34:39;;;;;;;14.30;11.32;;;;;;;21.02;87.87;98904.84;4997938;28;20099;-90
2022/08/23 06:37:06;;;;;;;17.08;12.50;;;;;;;21.16;87.58;98907.53;4997789;28;20026;-89
2022/08/23 06:39:32;;;;;;;19.45;12.55;;;;;;;21.04;89.26;98865.44;4997843;28;20480;-89
2022/08/23 06:42:02;;;;;;;20.20;13.40;;;;;;;20.95;89.23;98879.31;5014868;28;20061;-90
2022/08/23 06:44:28;;;;;;;19.37;12.80;;;;;;;21.02;88.63;98897.13;4997569;28;20061;-88
2022/08/23 06:46:57;;;;;;;17.83;12.80;;;;;;;21.12;89.62;98901.09;4997602;28;20088;-90
2022/08/23 06:49:23;;;;;;;19.25;12.60;;;;;;;21.13;88.67;98899.88;4997463;28;20029;-89
2022/08/23 06:51:52;;;;;;;17.65;12.13;;;;;;;21.14;88.69;98892.13;4997396;28;20411;-89
2022/08/23 06:54:20;;;;;;;20.98;13.35;;;;;;;21.33;88.63;98907.78;5014671;28;20034;-89
2022/08/23 06:56:47;;;;;;;17.92;11.95;;;;;;;21.15;87.03;98877.50;4997379;28;20061;-89
2022/08/23 06:59:13;;;;;;;12.77;10.05;;;;;;;21.28;85.41;98899.72;4997146;28;20029;-89
2022/08/23 07:01:46;;;;;;;13.85;9.40;;;;;;;21.42;83.42;98925.16;4996047;28;20499;-89
2022/08/23 07:04:14;;;;;;;16.27;10.35;;;;;;;21.46;83.68;98931.59;4997098;28;20408;-89
2022/08/23 07:06:39;;;;;;;12.13;9.25;;;;;;;21.24;83.31;98908.28;4997066;28;20083;-89
2022/08/23 07:09:06;;;;;;;14.02;10.13;;;;;;;21.31;82.65;98935.84;4997084;28;20026;-89
2022/08/23 07:11:31;;;;;;;15.52;11.40;;;;;;;21.21;84.36;98920.50;4997142;28;20444;-89
2022/08/23 07:14:03;;;;;;;15.43;10.60;;;;;;;21.44;85.20;98941.81;4996713;28;20072;-89
2022/08/23 07:16:34;;;;;;;13.57;10.80;;;;;;;21.38;84.92;98930.09;4996276;28;20480;-89
2022/08/23 07:19:00;;;;;;;29.92;11.88;;;;;;;21.37;84.06;98907.75;4996737;28;20034;-89
2022/08/23 07:21:26;;;;;;;12.30;10.02;;;;;;;21.55;81.67;98944.53;4996667;28;20152;-88
2022/08/23 07:23:52;;;;;;;14.07;10.52;;;;;;;21.31;81.83;98904.56;4996628;28;20072;-89
2022/08/23 07:26:21;;;;;;;16.33;10.40;;;;;;;21.53;82.23;98932.78;5014419;28;20026;-89
2022/08/23 07:28:47;;;;;;;13.18;9.70;;;;;;;21.16;81.37;98884.81;4996712;28;20033;-88
2022/08/23 07:31:26;;;;;;;14.70;10.25;;;;;;;21.55;82.33;98938.84;4996605;28;20496;-89
2022/08/23 07:33:53;;;;;;;15.20;11.57;;;;;;;21.41;83.67;98925.56;4996520;28;20022;-89
2022/08/23 07:36:21;;;;;;;16.80;11.13;;;;;;;21.45;83.66;98932.84;4996573;28;20037;-89
2022/08/23 07:38:47;;;;;;;26.95;12.75;;;;;;;21.51;84.17;98926.69;5013410;28;20025;-89
2022/08/23 07:41:13;;;;;;;21.02;10.93;;;;;;;21.24;84.28;98876.22;5013881;28;20081;-89
2022/08/23 07:43:40;;;;;;;15.07;10.88;;;;;;;21.32;83.55;98883.41;5013749;28;20018;-88
2022/08/23 07:46:07;;;;;;;20.55;11.88;;;;;;;21.68;84.42;98936.31;4996238;28;20034;-89
2022/08/23 07:48:33;;;;;;;20.75;11.07;;;;;;;21.42;81.65;98895.91;4996357;28;20057;-89
2022/08/23 07:51:02;;;;;;;19.85;10.80;;;;;;;21.68;81.99;98942.00;4996254;28;20477;-89
2022/08/23 07:53:28;;;;;;;19.20;10.97;;;;;;;21.53;83.05;98907.16;4995926;28;20468;-89
2022/08/23 07:55:53;;;;;;;21.45;13.27;;;;;;;21.79;82.20;98942.69;4993644;28;20057;-89
2022/08/23 07:58:20;;;;;;;15.55;11.05;;;;;;;21.83;82.88;98932.03;5007264;28;20026;-91
2022/08/23 08:00:46;;;;;;;20.60;10.80;;;;;;;21.85;83.73;98934.47;4991529;28;20040;-90
2022/08/23 08:03:13;;;;;;;15.27;10.43;;;;;;;21.76;83.57;98937.03;5012407;28;20030;-90
2022/08/23 08:05:41;;;;;;;24.63;11.73;;;;;;;21.79;83.31;98930.47;4995002;28;20033;-90
2022/08/23 08:08:08;;;;;;;15.55;9.73;;;;;;;21.62;81.50;98944.47;4996203;28;20118;-90
2022/08/23 08:10:39;;;;;;;21.02;11.13;;;;;;;21.19;81.81;98874.63;4995244;28;20471;-90
2022/08/23 08:13:07;;;;;;;15.73;11.05;;;;;;;21.50;82.52;98919.41;4985534;28;20030;-91
2022/08/23 08:15:34;;;;;;;15.73;11.35;;;;;;;21.63;82.44;98940.38;4984657;28;20026;-89
2022/08/23 08:18:00;;;;;;;15.63;10.55;;;;;;;21.28;81.19;98876.97;4993536;28;20560;-86
2022/08/23 08:20:29;;;;;;;14.43;10.80;;;;;;;21.28;82.57;98876.97;4993597;28;20030;-89
2022/08/23 08:22:55;;;;;;;19.03;12.37;;;;;;;21.81;82.33;98945.91;4995189;28;20492;-88
2022/08/23 08:25:21;;;;;;;15.45;11.88;;;;;;;21.57;82.56;98902.22;4992600;28;20030;-90
2022/08/23 08:27:47;;;;;;;18.25;10.95;;;;;;;21.88;82.39;98953.53;4985459;28;20029;-88
2022/08/23 08:30:12;;;;;;;17.20;10.85;;;;;;;21.68;82.48;98931.41;4994387;28;20099;-90
2022/08/23 08:32:38;;;;;;;18.92;11.77;;;;;;;21.87;82.64;98949.09;4994430;28;20506;-90
2022/08/23 08:35:05;;;;;;;15.82;11.48;;;;;;;22.04;81.40;98954.97;4994983;28;20061;-91
2022/08/23 08:37:31;;;;;;;15.05;11.13;;;;;;;21.98;80.84;98920.47;4994880;28;20466;-90
2022/08/23 08:39:58;;;;;;;14.77;11.57;;;;;;;22.26;82.05;98935.53;4994264;28;20104;-90
2022/08/23 08:42:44;;;;;;;16.23;11.02;;;;;;;22.43;81.79;98943.03;4995546;28;20103;-93
2022/08/23 08:45:22;;;;;;;31.05;12.57;;;;;;;22.39;81.80;98928.06;4991822;28;20037;-93
2022/08/23 08:47:56;;;;;;;34.85;15.02;;;;;;;22.51;85.60;98918.13;4992425;28;20064;-89
2022/08/23 08:50:26;;;;;;;30.80;15.02;;;;;;;22.20;88.10;98920.19;4991717;28;20107;-90
2022/08/23 08:53:23;;;;;;;31.83;14.43;;;;;;;22.03;87.87;98900.09;4995263;28;20022;-90
2022/08/23 08:55:52;;;;;;;22.80;13.75;;;;;;;22.14;87.78;98905.63;5012269;28;20026;-89
2022/08/23 08:58:25;;;;;;;25.80;15.10;;;;;;;22.27;90.07;98898.09;4995057;28;20485;-90
2022/08/23 09:00:51;;;;;;;29.92;14.07;;;;;;;22.19;89.59;98905.13;5014405;28;20105;-90
2022/08/23 09:03:19;;;;;;;30.13;14.07;;;;;;;22.43;89.33;98906.00;4995667;28;20068;-91
2022/08/23 09:05:56;;;;;;;21.30;14.77;;;;;;;22.50;87.37;98901.44;4995240;28;20488;-92
2022/08/23 09:08:46;;;;;;;27.38;14.65;;;;;;;22.62;88.93;98900.06;4994084;28;20029;-92
2022/08/23 09:11:39;;;;;;;31.13;15.30;;;;;;;22.74;89.82;98925.09;5010517;28;20468;-93
2022/08/23 09:14:12;;;;;;;16.65;13.48;;;;;;;22.76;88.47;98921.84;4995217;28;20034;-93
2022/08/23 09:16:53;;;;;;;17.42;13.43;;;;;;;22.71;87.82;98909.66;4994662;28;20088;-95
2022/08/23 09:19:22;;;;;;;21.15;15.45;;;;;;;22.77;90.10;98924.22;4995730;28;20030;-94
2022/08/23 09:21:48;;;;;;;17.80;14.18;;;;;;;22.80;85.43;98936.81;4995220;28;20041;-93
2022/08/23 09:24:15;;;;;;;18.23;14.05;;;;;;;22.59;86.28;98901.72;4995149;28;20022;-92
2022/08/23 09:26:41;;;;;;;16.52;13.50;;;;;;;22.58;84.46;98960.78;4994979;28;20026;-92
2022/08/23 09:29:27;;;;;;;24.65;14.02;;;;;;;22.73;86.34;98960.56;4989748;28;20030;-93
2022/08/23 09:32:02;;;;;;;16.60;12.27;;;;;;;22.57;83.95;98952.66;4992850;28;20094;-93
2022/08/23 09:34:36;;;;;;;20.55;15.35;;;;;;;22.87;85.26;98968.09;4975563;28;20033;-91
2022/08/23 09:37:13;;;;;;;16.08;13.50;;;;;;;22.60;83.12;98968.88;4975571;28;20026;-92
2022/08/23 09:39:42;;;;;;;23.63;14.52;;;;;;;22.38;84.73;98963.44;4975685;28;20053;-92
2022/08/23 09:42:31;;;;;;;28.48;15.68;;;;;;;22.22;86.24;98966.94;4975247;28;20054;-92
2022/08/23 09:44:58;;;;;;;19.45;15.75;;;;;;;22.13;88.16;98964.59;4975389;28;20034;-92
2022/08/23 09:47:39;;;;;;;24.33;15.10;;;;;;;22.11;86.23;98949.19;4985934;28;20627;-92
2022/08/23 09:50:41;;;;;;;22.98;15.90;;;;;;;22.46;88.96;98967.03;4985050;28;20022;-93
2022/08/23 09:53:09;;;;;;;16.75;14.63;;;;;;;22.70;89.15;98947.16;4968389;28;20034;-91
2022/08/23 09:55:42;;;;;;;22.80;16.45;;;;;;;22.86;86.10;98957.88;5001214;28;20084;-92
2022/08/23 09:58:33;;;;;;;22.90;16.13;;;;;;;22.80;88.80;98951.06;5009004;28;20473;-94
2022/08/23 10:01:22;;;;;;;19.13;14.50;;;;;;;23.12;87.09;98953.38;4991233;28;20055;-94
2022/08/23 10:04:05;;;;;;;18.77;14.82;;;;;;;23.22;85.26;98947.94;4992137;28;20023;-88
2022/08/23 10:06:33;;;;;;;20.83;15.43;;;;;;;23.53;83.47;98951.47;5008166;28;20034;-87
2022/08/23 10:09:03;;;;;;;23.58;15.45;;;;;;;23.44;81.65;98953.28;4997065;28;20084;-87
2022/08/23 10:11:35;;;;;;;20.08;15.10;;;;;;;23.67;82.55;98947.53;4990749;28;20038;-87
2022/08/23 10:14:01;;;;;;;20.92;15.48;;;;;;;23.73;80.85;98930.72;4990595;28;20042;-87
2022/08/23 10:16:40;;;;;;;23.20;17.77;;;;;;;23.45;82.79;98937.78;4997806;28;20029;-88
2022/08/23 10:19:28;;;;;;;22.38;17.45;;;;;;;23.44;80.69;98942.66;5014099;28;20428;-88
2022/08/23 10:22:10;;;;;;;23.90;16.17;;;;;;;23.27;78.38;98927.50;4995562;28;20491;-88
2022/08/23 10:24:46;;;;;;;21.10;15.65;;;;;;;23.59;79.55;98939.53;5004903;28;20120;-87
2022/08/23 10:30:17;;;;;;;23.90;17.80;;;;;;;24.02;76.79;98930.09;5014846;28;20129;-87
2022/08/23 10:33:06;;;;;;;20.38;15.85;;;;;;;24.25;76.90;98932.09;4996884;28;20500;-87
2022/08/23 10:35:38;;;;;;;18.33;16.33;;;;;;;24.03;75.25;98936.63;4997233;28;20022;-86
2022/08/23 10:38:36;;;;;;;20.02;15.75;;;;;;;24.15;77.27;98938.03;4992355;28;20030;-87
2022/08/23 10:41:36;;;;;;;20.50;15.07;;;;;;;24.45;75.79;98936.16;4963855;28;20464;-86
2022/08/23 10:44:20;;;;;;;22.00;15.27;;;;;;;24.60;77.42;98937.41;4982085;28;20018;-86
2022/08/23 10:47:10;;;;;;;19.85;15.13;;;;;;;24.58;72.75;98921.97;4996663;28;20064;-85
2022/08/23 10:49:38;;;;;;;17.20;15.15;;;;;;;24.92;72.56;98933.00;4983179;28;20030;-85
2022/08/23 10:52:08;;;;;;;18.23;14.93;;;;;;;25.09;71.04;98930.94;5000894;28;20033;-85
2022/08/23 10:54:45;;;;;;;20.35;15.07;;;;;;;25.33;68.57;98949.97;4979131;28;20046;-84
2022/08/23 10:57:19;;;;;;;21.55;16.30;;;;;;;25.34;71.23;98929.50;4987829;28;20100;-85
2022/08/23 10:59:46;;;;;;;17.90;14.55;;;;;;;25.49;70.75;98929.13;4976801;28;20382;-85
2022/08/23 11:02:41;;;;;;;22.85;16.45;;;;;;;25.73;68.82;98929.66;4994362;28;20076;-85
2022/08/23 11:05:16;;;;;;;19.63;16.27;;;;;;;25.58;67.89;98926.41;4996580;28;20488;-85
2022/08/23 11:07:54;;;;;;;26.50;16.73;;;;;;;25.59;69.96;98916.56;4991788;28;20054;-84
2022/08/23 11:10:29;;;;;;;20.83;15.57;;;;;;;25.80;70.15;98920.06;4985987;28;20036;-85
2022/08/23 11:12:59;;;;;;;21.90;16.35;;;;;;;25.90;69.22;98910.34;5012634;28;20073;-85
2022/08/23 11:15:44;;;;;;;21.35;15.80;;;;;;;25.82;67.61;98897.50;4992534;28;20030;-85
2022/08/23 11:18:33;;;;;;;23.80;15.98;;;;;;;26.17;66.31;98926.34;4975908;28;20126;-84
2022/08/23 11:21:24;;;;;;;22.30;18.23;;;;;;;26.15;66.47;98928.06;4967422;28;20432;-85
2022/08/23 11:24:10;;;;;;;24.40;16.58;;;;;;;26.10;66.72;98920.03;4987194;28;20034;-85
2022/08/23 11:26:36;;;;;;;22.05;16.85;;;;;;;26.08;65.20;98918.41;4992751;28;20045;-85
2022/08/23 11:29:05;;;;;;;21.48;15.43;;;;;;;26.16;66.12;98918.22;4995668;28;20057;-85
2022/08/23 11:31:38;;;;;;;27.95;17.48;;;;;;;26.35;65.60;98907.81;4995562;28;20034;-85
2022/08/23 11:34:09;;;;;;;26.67;17.35;;;;;;;26.35;65.03;98917.22;5013228;28;20029;-85
2022/08/23 11:36:35;;;;;;;20.83;16.48;;;;;;;26.35;64.21;98904.97;4995550;28;20493;-85
2022/08/23 11:39:04;;;;;;;27.88;17.33;;;;;;;26.47;64.93;98900.47;4995550;28;20036;-85
2022/08/23 11:41:33;;;;;;;22.85;16.55;;;;;;;26.44;66.23;98898.53;4995120;28;20046;-84
2022/08/23 11:44:02;;;;;;;20.20;16.63;;;;;;;25.84;66.05;98902.78;4995544;28;20412;-85